createdAt,value
2017-05-04T00:02:03.747Z,2.98
2017-05-04T00:04:32.811Z,2.73
2017-05-04T00:07:01.136Z,3.68
2017-05-04T00:09:29.730Z,2.70
2017-05-04T00:17:45.765Z,2.80
2017-05-04T00:20:14.840Z,3.25
2017-05-04T00:22:43.187Z,2.93
2017-05-04T00:25:11.636Z,2.08
2017-05-04T00:27:39.996Z,2.87
2017-05-04T00:30:08.324Z,2.73
2017-05-04T00:32:37.063Z,2.30
2017-05-04T00:35:05.390Z,2.63
2017-05-04T00:37:34.512Z,3.00
2017-05-04T00:40:03.000Z,1.98
2017-05-04T00:42:32.081Z,2.62
2017-05-04T00:45:00.476Z,2.07
2017-05-04T00:47:29.741Z,2.80
2017-05-04T00:49:58.064Z,2.88
2017-05-04T00:52:26.400Z,2.13
2017-05-04T00:54:54.785Z,2.02
2017-05-04T00:57:23.135Z,2.12
2017-05-04T00:59:51.460Z,2.58
2017-05-04T01:02:20.771Z,2.33
2017-05-04T01:04:49.110Z,2.58
2017-05-04T01:07:17.437Z,2.28
2017-05-04T01:09:45.802Z,2.33
2017-05-04T01:12:14.872Z,2.37
2017-05-04T01:14:43.201Z,2.77
2017-05-04T01:17:11.707Z,1.58
2017-05-04T01:19:40.031Z,2.13
2017-05-04T01:22:08.393Z,1.75
2017-05-04T01:24:37.806Z,2.05
2017-05-04T01:27:06.884Z,1.95
2017-05-04T01:29:35.298Z,1.60
2017-05-04T01:32:03.873Z,2.22
2017-05-04T01:34:32.204Z,2.25
2017-05-04T01:37:00.568Z,2.18
2017-05-04T01:39:29.140Z,2.58
2017-05-04T01:41:57.486Z,1.43
2017-05-04T01:44:25.857Z,1.82
2017-05-04T01:46:54.257Z,2.03
2017-05-04T01:49:22.584Z,1.87
2017-05-04T01:51:50.913Z,1.50
2017-05-04T01:54:19.390Z,1.80
2017-05-04T01:56:47.719Z,2.77
2017-05-04T01:59:16.046Z,1.80
2017-05-04T02:01:44.506Z,2.18
2017-05-04T02:04:13.609Z,2.00
2017-05-04T02:06:41.980Z,1.50
2017-05-04T02:09:11.122Z,2.13
2017-05-04T02:11:39.437Z,1.62
2017-05-04T02:14:08.505Z,1.68
2017-05-04T02:16:36.901Z,2.88
2017-05-04T02:19:05.236Z,2.00
2017-05-04T02:21:33.577Z,1.52
2017-05-04T02:24:02.683Z,2.43
2017-05-04T02:26:31.009Z,2.35
2017-05-04T02:28:59.335Z,1.70
2017-05-04T02:31:27.754Z,1.80
2017-05-04T02:33:56.089Z,1.70
2017-05-04T02:36:24.401Z,2.18
2017-05-04T02:38:52.859Z,1.85
2017-05-04T02:41:21.186Z,1.70
2017-05-04T02:43:49.561Z,2.00
2017-05-04T02:46:18.049Z,2.42
2017-05-04T02:48:46.382Z,1.90
2017-05-04T02:51:14.712Z,1.62
2017-05-04T02:53:43.058Z,1.75
2017-05-04T02:56:11.490Z,1.65
2017-05-04T02:58:40.715Z,1.83
2017-05-04T03:01:09.376Z,2.00
2017-05-04T03:03:37.705Z,2.00
2017-05-04T03:06:06.033Z,1.88
2017-05-04T03:08:35.175Z,2.23
2017-05-04T03:11:03.500Z,1.27
2017-05-04T03:13:31.832Z,1.88
2017-05-04T03:16:00.310Z,2.23
2017-05-04T03:18:28.766Z,2.33
2017-05-04T03:20:57.080Z,1.75
2017-05-04T03:23:25.623Z,2.40
2017-05-04T03:25:53.948Z,1.82
2017-05-04T03:28:22.279Z,1.77
2017-05-04T03:30:50.666Z,2.20
2017-05-04T03:33:19.121Z,3.23
2017-05-04T03:35:54.994Z,2.20
2017-05-04T03:38:23.331Z,1.72
2017-05-04T03:40:52.420Z,2.30
2017-05-04T03:43:21.651Z,1.95
2017-05-04T03:45:49.983Z,1.27
2017-05-04T03:48:18.304Z,1.97
2017-05-04T03:50:46.886Z,1.80
2017-05-04T03:53:15.237Z,1.68
2017-05-04T03:55:44.139Z,2.88
2017-05-04T03:58:13.270Z,2.28
2017-05-04T04:00:41.592Z,1.88
2017-05-04T04:03:09.918Z,2.22
2017-05-04T04:05:38.261Z,1.92
2017-05-04T04:08:07.337Z,1.48
2017-05-04T04:10:35.683Z,1.60
2017-05-04T04:13:04.012Z,1.82
2017-05-04T04:15:32.366Z,1.82
2017-05-04T04:18:00.703Z,2.27
2017-05-04T04:20:29.067Z,2.37
2017-05-04T04:22:57.380Z,1.95
2017-05-04T04:25:25.912Z,2.22
2017-05-04T04:27:54.992Z,1.55
2017-05-04T04:30:24.084Z,1.97
2017-05-04T04:32:53.244Z,2.00
2017-05-04T04:35:22.407Z,1.83
2017-05-04T04:37:50.737Z,2.38
2017-05-04T04:40:19.113Z,2.50
2017-05-04T04:42:47.445Z,3.18
2017-05-04T04:45:15.809Z,2.33
2017-05-04T04:47:44.187Z,2.23
2017-05-04T04:50:12.768Z,2.00
2017-05-04T04:52:41.113Z,1.98
2017-05-04T04:55:09.449Z,1.92
2017-05-04T04:57:37.856Z,3.20
2017-05-04T05:00:06.173Z,2.62
2017-05-04T05:02:35.236Z,2.48
2017-05-04T05:05:03.746Z,2.43
2017-05-04T05:07:32.808Z,2.60
2017-05-04T05:10:01.124Z,2.60
2017-05-04T05:12:30.243Z,3.33
2017-05-04T05:14:58.560Z,2.20
2017-05-04T05:17:26.940Z,2.85
2017-05-04T05:19:55.354Z,2.65
2017-05-04T05:22:23.681Z,2.65
2017-05-04T05:24:52.765Z,4.30
2017-05-04T05:27:21.218Z,2.75
2017-05-04T05:29:49.540Z,2.78
2017-05-04T05:32:17.885Z,2.47
2017-05-04T05:34:46.421Z,2.62
2017-05-04T05:37:14.755Z,2.92
2017-05-04T05:39:43.151Z,2.97
2017-05-04T05:42:11.876Z,2.70
2017-05-04T05:44:40.946Z,2.63
2017-05-04T05:47:09.263Z,2.53
2017-05-04T05:49:37.794Z,2.85
2017-05-04T05:52:06.131Z,2.92
2017-05-04T05:54:34.449Z,2.93
2017-05-04T05:57:02.835Z,2.67
2017-05-04T05:59:31.164Z,2.97
2017-05-04T06:01:59.488Z,2.88
2017-05-04T06:04:28.149Z,3.12
2017-05-04T06:06:56.489Z,2.95
2017-05-04T06:09:24.818Z,3.22
2017-05-04T06:11:53.345Z,3.50
2017-05-04T06:14:21.668Z,3.35
2017-05-04T06:16:50.003Z,2.90
2017-05-04T06:19:18.579Z,2.58
2017-05-04T06:21:47.653Z,3.08
2017-05-04T06:24:16.002Z,4.10
2017-05-04T06:26:44.747Z,2.93
2017-05-04T06:29:13.074Z,3.70
2017-05-04T06:31:41.408Z,3.17
2017-05-04T06:34:10.243Z,3.53
2017-05-04T06:36:38.576Z,2.60
2017-05-04T06:39:06.897Z,2.70
2017-05-04T06:41:35.385Z,3.63
2017-05-04T06:44:03.720Z,3.65
2017-05-04T06:46:32.076Z,3.47
2017-05-04T06:49:00.679Z,3.27
2017-05-04T06:51:29.004Z,3.53
2017-05-04T06:53:58.086Z,3.42
2017-05-04T06:56:26.617Z,3.60
2017-05-04T06:58:55.051Z,3.78
2017-05-04T07:01:23.433Z,3.42
2017-05-04T07:03:51.957Z,2.52
2017-05-04T07:06:20.332Z,3.68
2017-05-04T07:08:48.652Z,3.32
2017-05-04T07:11:17.124Z,3.27
2017-05-04T07:13:45.458Z,3.53
2017-05-04T07:16:14.525Z,2.77
2017-05-04T07:18:43.245Z,3.38
2017-05-04T07:21:11.570Z,3.33
2017-05-04T07:23:39.909Z,2.87
2017-05-04T07:26:08.299Z,2.68
2017-05-04T07:28:36.660Z,3.20
2017-05-04T07:31:04.992Z,4.25
2017-05-04T07:33:33.484Z,2.98
2017-05-04T07:36:01.816Z,3.95
2017-05-04T07:38:30.146Z,2.52
2017-05-04T07:40:59.584Z,2.53
2017-05-04T07:43:27.978Z,3.50
2017-05-04T07:45:56.327Z,3.47
2017-05-04T07:48:25.011Z,2.55
2017-05-04T07:50:54.120Z,2.80
2017-05-04T07:53:22.464Z,4.05
2017-05-04T07:55:50.868Z,3.70
2017-05-04T07:58:19.194Z,3.17
2017-05-04T08:00:47.534Z,2.80
2017-05-04T08:03:15.996Z,3.68
2017-05-04T08:05:45.065Z,3.93
2017-05-04T08:08:13.391Z,4.72
2017-05-04T08:10:42.252Z,3.57
2017-05-04T08:13:11.328Z,3.05
2017-05-04T08:15:39.664Z,2.67
2017-05-04T08:18:08.293Z,2.88
2017-05-04T08:20:36.634Z,3.55
2017-05-04T08:23:04.957Z,3.42
2017-05-04T08:25:34.171Z,3.48
2017-05-04T08:28:02.504Z,3.55
2017-05-04T08:30:30.822Z,3.23
2017-05-04T08:33:00.032Z,4.32
2017-05-04T08:35:28.359Z,2.65
2017-05-04T08:37:56.697Z,4.15
2017-05-04T08:40:25.055Z,2.82
2017-05-04T08:42:53.377Z,3.15
2017-05-04T08:45:22.704Z,3.18
2017-05-04T08:47:51.344Z,2.82
2017-05-04T08:50:19.668Z,3.88
2017-05-04T08:52:48.128Z,3.17
2017-05-04T08:55:16.502Z,3.48
2017-05-04T08:57:44.828Z,3.67
2017-05-04T09:00:13.160Z,3.22
2017-05-04T09:02:41.680Z,3.35
2017-05-04T09:05:10.790Z,2.83
2017-05-04T09:07:39.113Z,2.97
2017-05-04T09:10:07.575Z,3.47
2017-05-04T09:12:35.906Z,3.05
2017-05-04T09:15:04.241Z,3.82
2017-05-04T09:17:32.764Z,3.32
2017-05-04T09:20:01.837Z,3.10
2017-05-04T09:22:30.170Z,3.35
2017-05-04T09:24:59.051Z,2.90
2017-05-04T09:27:27.384Z,2.98
2017-05-04T09:29:55.720Z,3.43
2017-05-04T09:32:24.105Z,3.88
2017-05-04T09:34:52.445Z,2.40
2017-05-04T09:37:21.509Z,2.82
2017-05-04T09:39:50.181Z,3.52
2017-05-04T09:42:18.508Z,2.63
2017-05-04T09:44:46.836Z,3.42
2017-05-04T09:47:15.471Z,3.37
2017-05-04T09:49:44.559Z,3.35
2017-05-04T09:52:13.629Z,3.66
2017-05-04T09:54:41.994Z,2.75
2017-05-04T09:57:10.328Z,3.20
2017-05-04T09:59:38.653Z,2.73
2017-05-04T10:02:07.256Z,2.38
2017-05-04T10:04:36.414Z,2.50
2017-05-04T10:07:04.736Z,2.62
2017-05-04T10:09:33.188Z,2.12
2017-05-04T10:12:01.526Z,2.53
2017-05-04T10:14:29.858Z,2.80
2017-05-04T10:16:58.980Z,3.20
2017-05-04T10:19:27.308Z,2.05
2017-05-04T10:21:55.647Z,2.88
2017-05-04T10:24:24.198Z,2.72
2017-05-04T10:26:53.274Z,2.92
2017-05-04T10:29:21.628Z,3.75
2017-05-04T10:31:50.356Z,2.93
2017-05-04T10:34:19.417Z,3.22
2017-05-04T10:36:47.797Z,2.55
2017-05-04T10:39:16.421Z,2.85
2017-05-04T10:41:45.480Z,2.82
2017-05-04T10:44:13.815Z,2.92
2017-05-04T10:46:42.368Z,3.37
2017-05-04T10:49:11.451Z,2.78
2017-05-04T10:51:39.790Z,2.43
2017-05-04T10:54:08.320Z,2.73
2017-05-04T10:56:37.388Z,2.88
2017-05-04T10:59:05.724Z,2.87
2017-05-04T11:01:34.112Z,3.12
2017-05-04T11:04:02.428Z,2.85
2017-05-04T11:06:30.747Z,3.03
2017-05-04T11:08:59.425Z,2.67
2017-05-04T11:11:27.755Z,3.02
2017-05-04T11:13:56.090Z,3.75
2017-05-04T11:16:24.671Z,2.47
2017-05-04T11:18:53.000Z,2.98
2017-05-04T11:21:21.326Z,3.35
2017-05-04T11:23:49.706Z,3.08
2017-05-04T11:26:18.032Z,3.22
2017-05-04T11:28:46.355Z,2.80
2017-05-04T11:31:14.733Z,3.40
2017-05-04T11:33:43.108Z,2.63
2017-05-04T11:36:11.456Z,3.75
2017-05-04T11:38:39.786Z,2.68
2017-05-04T11:41:08.159Z,3.75
2017-05-04T11:43:36.497Z,3.23
2017-05-04T11:46:05.589Z,3.90
2017-05-04T11:48:33.943Z,3.15
2017-05-04T11:51:02.318Z,3.05
2017-05-04T11:53:30.653Z,2.85
2017-05-04T11:55:59.000Z,2.70
2017-05-04T11:58:28.099Z,2.83
2017-05-04T12:00:57.210Z,3.20
2017-05-04T12:03:25.541Z,2.63
2017-05-04T12:05:53.892Z,2.98
2017-05-04T12:08:22.229Z,2.43
2017-05-04T12:10:51.325Z,3.10
2017-05-04T12:13:20.413Z,2.67
2017-05-04T12:15:49.894Z,3.32
2017-05-04T12:18:18.245Z,3.28
2017-05-04T12:20:46.604Z,2.58
2017-05-04T12:23:14.957Z,3.25
2017-05-04T12:25:45.076Z,2.97
2017-05-04T12:28:14.149Z,3.20
2017-05-04T12:30:42.555Z,2.95
2017-05-04T12:33:11.622Z,2.83
2017-05-04T12:35:40.046Z,3.33
2017-05-04T12:38:08.384Z,3.37
2017-05-04T12:40:36.732Z,3.23
2017-05-04T12:43:05.080Z,3.68
2017-05-04T12:45:33.429Z,3.42
2017-05-04T12:48:01.872Z,3.28
2017-05-04T12:50:30.200Z,3.50
2017-05-04T12:52:58.558Z,3.03
2017-05-04T12:55:26.880Z,3.23
2017-05-04T12:57:55.233Z,3.78
2017-05-04T13:00:23.588Z,3.37
2017-05-04T13:02:51.991Z,3.95
2017-05-04T13:05:21.069Z,3.05
2017-05-04T13:07:50.163Z,4.00
2017-05-04T13:10:19.265Z,3.92
2017-05-04T13:12:47.659Z,3.95
2017-05-04T13:15:15.997Z,4.12
2017-05-04T13:17:44.394Z,3.93
2017-05-04T13:20:13.463Z,4.95
2017-05-04T13:22:41.808Z,3.70
2017-05-04T13:25:10.145Z,3.58
2017-05-04T13:27:39.305Z,4.00
2017-05-04T13:30:07.652Z,4.12
2017-05-04T13:32:36.007Z,4.07
2017-05-04T13:35:04.358Z,3.58
2017-05-04T13:37:32.750Z,3.90
2017-05-04T13:40:01.831Z,2.82
2017-05-04T13:42:30.342Z,2.88
2017-05-04T13:44:58.670Z,2.92
2017-05-04T13:47:27.004Z,3.98
2017-05-04T13:49:55.360Z,4.53
2017-05-04T13:52:23.685Z,3.87
2017-05-04T13:54:52.055Z,3.78
2017-05-04T13:57:20.381Z,4.52
2017-05-04T13:59:48.724Z,3.25
2017-05-04T14:02:17.067Z,4.62
2017-05-04T14:04:45.414Z,3.72
2017-05-04T14:07:13.748Z,4.45
2017-05-04T14:09:42.301Z,3.65
2017-05-04T14:12:10.678Z,3.33
2017-05-04T14:14:39.753Z,4.02
2017-05-04T14:17:08.136Z,3.23
2017-05-04T14:19:37.212Z,3.82
2017-05-04T14:22:05.576Z,3.50
2017-05-04T14:24:33.936Z,3.95
2017-05-04T14:27:03.196Z,4.10
2017-05-04T14:29:32.291Z,3.62
2017-05-04T14:32:00.640Z,2.77
2017-05-04T14:34:28.989Z,2.72
2017-05-04T14:36:57.321Z,4.22
2017-05-04T14:39:26.640Z,3.25
2017-05-04T14:41:54.972Z,2.98
2017-05-04T14:44:23.329Z,3.35
2017-05-04T14:46:51.715Z,3.47
2017-05-04T14:49:20.036Z,3.22
2017-05-04T14:51:48.356Z,2.95
2017-05-04T14:56:52.729Z,3.44
2017-05-04T14:59:21.108Z,3.53
2017-05-04T15:01:50.180Z,3.50
2017-05-04T15:04:18.503Z,3.83
2017-05-04T15:06:47.115Z,2.88
2017-05-04T15:09:15.452Z,3.05
2017-05-04T15:11:44.567Z,2.60
2017-05-04T15:14:12.950Z,2.78
2017-05-04T15:16:41.293Z,2.92
2017-05-04T15:19:10.372Z,3.05
2017-05-04T15:21:38.847Z,3.27
2017-05-04T15:24:07.172Z,2.48
2017-05-04T15:26:35.602Z,2.88
2017-05-04T15:29:04.122Z,3.60
2017-05-04T15:31:32.466Z,2.52
2017-05-04T15:34:00.800Z,3.50
2017-05-04T15:36:29.389Z,3.40
2017-05-04T15:38:57.726Z,2.43
2017-05-04T15:41:26.802Z,3.20
2017-05-04T15:43:55.214Z,2.93
2017-05-04T15:46:23.561Z,3.17
2017-05-04T15:48:51.894Z,2.02
2017-05-04T15:51:20.727Z,2.57
2017-05-04T15:53:49.118Z,2.53
2017-05-04T15:56:17.470Z,3.28
2017-05-04T15:58:46.639Z,2.27
2017-05-04T16:01:15.821Z,3.18
2017-05-04T16:03:44.158Z,2.65
2017-05-04T16:06:12.576Z,2.77
2017-05-04T16:08:40.915Z,2.38
2017-05-04T16:11:09.245Z,2.67
2017-05-04T16:13:37.745Z,2.63
2017-05-04T16:16:06.079Z,2.78
2017-05-04T16:18:34.398Z,2.42
2017-05-04T16:21:02.857Z,3.42
2017-05-04T16:23:31.201Z,3.18
2017-05-04T16:25:59.575Z,3.02
2017-05-04T16:28:29.030Z,2.47
2017-05-04T16:30:57.415Z,3.08
2017-05-04T16:33:25.747Z,2.78
2017-05-04T16:35:55.073Z,2.87
2017-05-04T16:38:23.886Z,2.33
2017-05-04T16:40:52.207Z,2.88
2017-05-04T16:43:21.457Z,3.30
2017-05-04T16:45:49.804Z,2.47
2017-05-04T16:48:18.175Z,3.50
2017-05-04T16:50:46.681Z,3.05
2017-05-04T16:53:15.361Z,4.03
2017-05-04T16:55:43.753Z,2.80
2017-05-04T16:58:12.230Z,2.65
2017-05-04T17:00:41.261Z,3.77
2017-05-04T17:03:09.624Z,2.82
2017-05-04T17:05:38.088Z,3.70
2017-05-04T17:08:06.468Z,3.62
2017-05-04T17:10:34.818Z,3.13
2017-05-04T17:13:04.217Z,3.08
2017-05-04T17:15:32.569Z,3.47
2017-05-04T17:18:01.742Z,2.95
2017-05-04T17:20:30.186Z,3.35
2017-05-04T17:22:58.598Z,3.43
2017-05-04T17:25:26.933Z,4.03
2017-05-04T17:27:55.428Z,3.78
2017-05-04T17:30:24.538Z,3.22
2017-05-04T17:32:52.890Z,3.15
2017-05-04T17:35:21.673Z,3.70
2017-05-04T17:37:50.005Z,3.37
2017-05-04T17:40:18.353Z,4.08
2017-05-04T17:42:46.728Z,3.28
2017-05-04T17:45:15.068Z,2.95
2017-05-04T17:47:43.408Z,4.13
2017-05-04T17:50:11.913Z,4.73
2017-05-04T17:52:40.246Z,3.88
2017-05-04T17:55:08.582Z,3.57
2017-05-04T17:57:37.050Z,4.08
2017-05-04T18:00:06.259Z,3.77
2017-05-04T18:02:34.885Z,3.37
2017-05-04T18:05:03.630Z,3.07
2017-05-04T18:07:32.015Z,4.60
2017-05-04T18:10:00.465Z,4.18
2017-05-04T18:12:29.561Z,4.48
2017-05-04T18:14:57.929Z,3.68
2017-05-04T18:17:26.298Z,3.85
2017-05-04T18:19:55.349Z,3.93
2017-05-04T18:22:23.891Z,4.03
2017-05-04T18:24:53.101Z,3.63
2017-05-04T18:27:22.629Z,5.38
2017-05-04T18:29:51.012Z,4.27
2017-05-04T18:32:19.362Z,5.08
2017-05-04T18:34:48.576Z,4.37
2017-05-04T18:37:17.609Z,3.63
2017-05-04T18:39:45.982Z,4.22
2017-05-04T18:42:14.470Z,4.08
2017-05-04T18:44:42.811Z,3.78
2017-05-04T18:47:11.158Z,2.70
2017-05-04T18:49:39.788Z,4.60
2017-05-04T18:52:08.193Z,4.22
2017-05-04T18:54:36.555Z,5.15
2017-05-04T18:57:05.195Z,4.25
2017-05-04T18:59:34.288Z,4.72
2017-05-04T19:02:04.047Z,4.17
2017-05-04T19:04:32.905Z,4.15
2017-05-04T19:07:01.301Z,4.95
2017-05-04T19:09:29.641Z,4.02
2017-05-04T19:11:58.155Z,5.12
2017-05-04T19:14:33.538Z,4.57
2017-05-04T19:17:05.714Z,4.60
2017-05-04T19:19:35.768Z,4.68
2017-05-04T19:22:06.517Z,5.35
2017-05-04T19:24:34.875Z,4.38
2017-05-04T19:27:03.245Z,4.98
2017-05-04T19:29:31.769Z,4.17
2017-05-04T19:32:00.108Z,4.70
2017-05-04T19:34:28.454Z,4.38
2017-05-04T19:36:56.998Z,6.45
2017-05-04T19:39:25.378Z,5.27
2017-05-04T19:41:53.836Z,4.72
2017-05-04T19:44:22.299Z,5.45
2017-05-04T19:46:51.414Z,4.83
2017-05-04T19:49:19.832Z,5.95
2017-05-04T19:54:16.993Z,5.28
2017-05-04T19:56:45.336Z,4.97
2017-05-04T19:59:13.725Z,6.20
2017-05-04T20:01:42.080Z,6.78
2017-05-04T20:04:11.156Z,6.75
2017-05-04T20:06:40.414Z,6.02
2017-05-04T20:09:09.560Z,5.27
2017-05-04T20:11:38.688Z,5.43
2017-05-04T20:14:07.212Z,5.08
2017-05-04T20:16:35.645Z,6.28
2017-05-04T20:19:04.050Z,5.07
2017-05-04T20:21:32.737Z,6.30
2017-05-04T20:24:01.299Z,5.93
2017-05-04T20:26:29.623Z,4.65
2017-05-04T20:28:58.187Z,5.32
2017-05-04T20:31:26.533Z,4.98
2017-05-04T20:33:54.891Z,5.65
2017-05-04T20:36:23.280Z,4.72
2017-05-04T20:38:51.631Z,4.68
2017-05-04T20:41:20.123Z,4.63
2017-05-04T20:43:49.360Z,5.63
2017-05-04T20:46:17.695Z,4.65
2017-05-04T20:48:46.862Z,4.78
2017-05-04T20:51:15.274Z,5.42
2017-05-04T20:53:44.399Z,5.42
2017-05-04T20:56:12.811Z,5.32
2017-05-04T20:58:42.253Z,4.62
2017-05-04T21:01:11.430Z,5.10
2017-05-04T21:03:40.675Z,5.52
2017-05-04T21:06:09.280Z,5.02
2017-05-04T21:08:37.653Z,4.23
2017-05-04T21:11:06.084Z,4.35
2017-05-04T21:13:34.461Z,4.23
2017-05-04T21:16:02.837Z,4.60
2017-05-04T21:18:31.973Z,3.72
2017-05-04T21:21:00.641Z,5.22
2017-05-04T21:23:28.983Z,4.57
2017-05-04T21:25:57.309Z,4.08
2017-05-04T21:28:25.861Z,4.55
2017-05-04T21:30:54.934Z,4.22
2017-05-04T21:33:23.260Z,4.40
2017-05-04T21:35:51.793Z,4.97
2017-05-04T21:38:20.130Z,3.87
2017-05-04T21:40:48.493Z,4.75
2017-05-04T21:43:17.186Z,3.88
2017-05-04T21:45:46.529Z,4.77
2017-05-04T21:48:14.852Z,4.42
2017-05-04T21:50:51.608Z,4.80
2017-05-04T21:53:20.683Z,4.58
2017-05-04T21:55:49.032Z,3.60
2017-05-04T21:58:17.554Z,5.17
2017-05-04T22:00:46.621Z,4.47
2017-05-04T22:03:14.972Z,4.42
2017-05-04T22:05:48.212Z,4.80
2017-05-04T22:08:17.016Z,5.03
2017-05-04T22:10:45.390Z,5.37
2017-05-04T22:13:13.732Z,4.62
2017-05-04T22:15:42.052Z,5.12
2017-05-04T22:18:10.585Z,4.40
2017-05-04T22:20:38.958Z,4.20
2017-05-04T22:23:07.297Z,4.40
2017-05-04T22:25:35.692Z,4.67
2017-05-04T22:28:04.008Z,3.45
2017-05-04T22:30:32.344Z,4.23
2017-05-04T22:33:00.762Z,4.58
2017-05-04T22:35:29.093Z,4.42
2017-05-04T22:37:57.415Z,3.87
2017-05-04T22:40:25.932Z,5.33
2017-05-04T22:42:54.283Z,4.22
2017-05-04T22:45:22.658Z,4.40
2017-05-04T22:47:51.192Z,4.35
2017-05-04T22:50:20.312Z,4.28
2017-05-04T22:52:48.695Z,4.50
2017-05-04T22:55:17.435Z,4.93
2017-05-04T22:57:45.842Z,4.43
2017-05-04T23:00:14.185Z,4.05
2017-05-04T23:02:42.649Z,3.78
2017-05-04T23:05:11.025Z,5.00
2017-05-04T23:07:39.364Z,4.60
2017-05-04T23:10:07.881Z,5.05
2017-05-04T23:12:36.218Z,4.20
2017-05-04T23:15:04.552Z,4.27
2017-05-04T23:17:34.820Z,4.77
2017-05-04T23:20:03.197Z,4.47
2017-05-04T23:22:31.524Z,4.95
2017-05-04T23:24:59.924Z,4.27
2017-05-04T23:27:28.274Z,4.12
2017-05-04T23:29:57.357Z,4.90
2017-05-04T23:32:25.880Z,4.22
2017-05-04T23:34:54.325Z,3.77
2017-05-04T23:37:22.708Z,4.22
2017-05-04T23:39:51.237Z,4.00
2017-05-04T23:42:19.600Z,3.72
2017-05-04T23:44:47.932Z,4.82
2017-05-04T23:47:16.596Z,4.10
2017-05-04T23:49:44.934Z,3.73
2017-05-04T23:52:14.188Z,3.80
2017-05-04T23:54:42.742Z,3.12
2017-05-04T23:57:11.097Z,3.42
2017-05-04T23:59:39.475Z,4.02
